Las Bayas, Argentina
Current Conditions -  °F | °C
As of 1:00 PM on Friday 24 Oct 2014 (Local Time) from SAZS Reporting Station
Clear Clear  
Wind Chill: 66°   Ceiling: Unl
Heat Index: 66°   Visibility: 6mi
Dew Point: 34°   Wind: 8mph
Humidity: 30%   Direction: 320°NW
Pressure: 30.09"   Gusts: NA
Location:  41.29°S, 70.7°W
Report Text: SAZS 241600Z 32007KT CAVOK 19/01 Q1019
Loading
Personal Weather Stations






























Interactive Weather Map
Tropical Storm Tracking
New forecast layout! Learn more

10-Day Weather Forecast

Advertisements
Track Severe Weather on mobile